Hauptseite
METAR-TAF:

METAR-TAF

Flughäfen :

Dortmund, Deutschland

Flughafen Dortmund

Breite: 51-31N, Länge: 007-37E, Höhe: 127 m

Beobachtung

Neuester Wetterbericht von vor 13 Minuten, um 11:50 UTC
Wind 4 kt aus unterschiedlichen Richtungen
Temperatur 18°C
Luftfeuchtigkeit 49%
Luftdruck 1023 hPa
Sichtweite 10 km oder mehr
keine Wolken unter 1500 m und keine Kumulonimbus oder Gewitterwolken

METAR: EDLW 211150Z VRB04KT CAVOK 18/07 Q1023

Zeit: 14:03 (12:03 UTC)

Prognose

Neuester Wetterbericht von vor 1 Stunde und 3 Minuten, um 11:00 UTC
Gültige Prognose vom 21 um 12 UTC bis 22 um 12 UTC
Wind 5 kt aus West
Sichtweite 10 km oder mehr
Leicht bewölkt in der Höhe von 4000 ft
Übergehend zu
vom 21 um 15 UTC bis 21 um 18 UTC
Wind 4 kt aus Süd/Südost

TAF: EDLW 211100Z 2112/2212 28005KT 9999 FEW040 BECMG 2115/2118 16004KT

Wetterbeobachtungen und Prognosen von mehr als 4000 Flughäfen (METAR und TAF Bericht).

Die verfügbaren Stationen werden durch gelbe und rote Markierungen auf der Karte dargestellt.

Führen Sie die Maus auf sie, um den Namen der Station zu sehen.

Darauf klicken, um die Beobachtung von Wetterbeobachtungen und Prognosen zu sehen.

Um die Karte zu ändern : klicken Sie auf den grünen Tasten mit einem schwarzen Kreuz Zum Vergrößern, auf den grünen Button mit einem Gedankenstrich zu verkleinern, oder auf die grünen Pfeile für benachbarte Karten.


METAR-TAF: